sensor_id;sensor_type;location;lat;lon;timestamp;pressure;altitude;pressure_sealevel;temperature;humidity
37904;BME280;23738;50.422;18.758;2023-02-11T00:01:41;100134.15;;;-2.57;69.26
37904;BME280;23738;50.422;18.758;2023-02-11T00:04:11;100138.95;;;-2.61;69.45
37904;BME280;23738;50.422;18.758;2023-02-11T00:06:40;100131.61;;;-2.65;69.38
37904;BME280;23738;50.422;18.758;2023-02-11T00:09:10;100126.16;;;-2.70;69.37
37904;BME280;23738;50.422;18.758;2023-02-11T00:11:40;100121.45;;;-2.76;69.58
37904;BME280;23738;50.422;18.758;2023-02-11T00:14:11;100119.49;;;-2.82;69.59
37904;BME280;23738;50.422;18.758;2023-02-11T00:16:40;100118.91;;;-2.87;69.43
37904;BME280;23738;50.422;18.758;2023-02-11T00:19:09;100126.02;;;-2.91;69.53
37904;BME280;23738;50.422;18.758;2023-02-11T00:21:39;100128.04;;;-2.97;69.41
37904;BME280;23738;50.422;18.758;2023-02-11T00:24:08;100120.70;;;-2.99;69.41
37904;BME280;23738;50.422;18.758;2023-02-11T00:26:37;100120.42;;;-3.00;69.43
37904;BME280;23738;50.422;18.758;2023-02-11T00:29:07;100118.86;;;-2.96;69.45
37904;BME280;23738;50.422;18.758;2023-02-11T00:31:36;100113.07;;;-2.94;69.65
37904;BME280;23738;50.422;18.758;2023-02-11T00:34:05;100106.67;;;-2.94;69.59
37904;BME280;23738;50.422;18.758;2023-02-11T00:36:34;100101.67;;;-2.98;69.68
37904;BME280;23738;50.422;18.758;2023-02-11T00:39:05;100097.11;;;-2.99;69.86
37904;BME280;23738;50.422;18.758;2023-02-11T00:41:35;100086.84;;;-3.01;69.87
37904;BME280;23738;50.422;18.758;2023-02-11T00:44:04;100083.73;;;-3.04;69.96
37904;BME280;23738;50.422;18.758;2023-02-11T00:46:34;100070.52;;;-3.09;69.87
37904;BME280;23738;50.422;18.758;2023-02-11T00:49:03;100060.20;;;-3.13;69.91
37904;BME280;23738;50.422;18.758;2023-02-11T00:51:32;100058.67;;;-3.17;69.95
37904;BME280;23738;50.422;18.758;2023-02-11T00:54:01;100062.13;;;-3.20;70.01
37904;BME280;23738;50.422;18.758;2023-02-11T00:56:31;100061.73;;;-3.23;69.84
37904;BME280;23738;50.422;18.758;2023-02-11T00:59:00;100052.80;;;-3.23;69.95
37904;BME280;23738;50.422;18.758;2023-02-11T01:01:30;100045.45;;;-3.21;70.08
37904;BME280;23738;50.422;18.758;2023-02-11T01:03:59;100033.13;;;-3.16;70.19
37904;BME280;23738;50.422;18.758;2023-02-11T01:06:28;100033.59;;;-3.11;70.37
37904;BME280;23738;50.422;18.758;2023-02-11T01:08:57;100029.39;;;-3.07;70.54
37904;BME280;23738;50.422;18.758;2023-02-11T01:11:27;100029.29;;;-3.04;70.57
37904;BME280;23738;50.422;18.758;2023-02-11T01:13:56;100037.52;;;-3.04;70.57
37904;BME280;23738;50.422;18.758;2023-02-11T01:16:26;100037.55;;;-3.08;70.64
37904;BME280;23738;50.422;18.758;2023-02-11T01:18:55;100030.30;;;-3.08;70.70
37904;BME280;23738;50.422;18.758;2023-02-11T01:21:25;100019.72;;;-3.06;70.73
37904;BME280;23738;50.422;18.758;2023-02-11T01:23:55;100017.45;;;-3.05;70.94
37904;BME280;23738;50.422;18.758;2023-02-11T01:26:24;100014.55;;;-3.06;70.84
37904;BME280;23738;50.422;18.758;2023-02-11T01:28:53;100017.33;;;-3.07;70.70
37904;BME280;23738;50.422;18.758;2023-02-11T01:31:23;100012.73;;;-3.04;70.59
37904;BME280;23738;50.422;18.758;2023-02-11T01:33:52;100015.71;;;-2.99;70.90
37904;BME280;23738;50.422;18.758;2023-02-11T01:36:21;100016.90;;;-2.92;70.81
37904;BME280;23738;50.422;18.758;2023-02-11T01:38:51;100006.41;;;-2.89;70.82
37904;BME280;23738;50.422;18.758;2023-02-11T01:41:20;99993.98;;;-2.85;71.01
37904;BME280;23738;50.422;18.758;2023-02-11T01:43:50;99997.42;;;-2.82;71.10
37904;BME280;23738;50.422;18.758;2023-02-11T01:46:31;99991.72;;;-2.79;71.24
37904;BME280;23738;50.422;18.758;2023-02-11T01:49:06;99980.98;;;-2.78;71.10
37904;BME280;23738;50.422;18.758;2023-02-11T01:51:39;99981.30;;;-2.80;71.15
37904;BME280;23738;50.422;18.758;2023-02-11T01:54:12;99979.73;;;-2.83;71.18
37904;BME280;23738;50.422;18.758;2023-02-11T01:56:58;99964.55;;;-2.87;71.41
37904;BME280;23738;50.422;18.758;2023-02-11T01:59:55;99955.98;;;-2.91;71.29
37904;BME280;23738;50.422;18.758;2023-02-11T02:02:33;99949.92;;;-2.90;71.25
37904;BME280;23738;50.422;18.758;2023-02-11T02:05:14;99946.50;;;-2.87;71.25
37904;BME280;23738;50.422;18.758;2023-02-11T02:07:51;99940.05;;;-2.83;71.49
37904;BME280;23738;50.422;18.758;2023-02-11T02:10:25;99941.65;;;-2.74;71.63
37904;BME280;23738;50.422;18.758;2023-02-11T02:12:55;99938.90;;;-2.68;71.73
37904;BME280;23738;50.422;18.758;2023-02-11T02:15:31;99938.98;;;-2.62;71.79
37904;BME280;23738;50.422;18.758;2023-02-11T02:18:05;99940.33;;;-2.59;71.86
37904;BME280;23738;50.422;18.758;2023-02-11T02:21:05;99932.77;;;-2.56;72.02
37904;BME280;23738;50.422;18.758;2023-02-11T02:24:03;99925.48;;;-2.56;72.16
37904;BME280;23738;50.422;18.758;2023-02-11T02:27:07;99925.71;;;-2.54;72.10
37904;BME280;23738;50.422;18.758;2023-02-11T02:30:10;99914.77;;;-2.52;72.17
37904;BME280;23738;50.422;18.758;2023-02-11T02:32:52;99910.23;;;-2.52;72.10
37904;BME280;23738;50.422;18.758;2023-02-11T02:35:37;99903.15;;;-2.48;72.14
37904;BME280;23738;50.422;18.758;2023-02-11T02:38:11;99901.23;;;-2.42;72.17
37904;BME280;23738;50.422;18.758;2023-02-11T02:40:47;99895.40;;;-2.33;72.21
37904;BME280;23738;50.422;18.758;2023-02-11T02:43:17;99890.77;;;-2.24;72.32
37904;BME280;23738;50.422;18.758;2023-02-11T02:45:48;99889.04;;;-2.18;72.53
37904;BME280;23738;50.422;18.758;2023-02-11T02:48:28;99885.31;;;-2.13;72.55
37904;BME280;23738;50.422;18.758;2023-02-11T02:51:09;99884.79;;;-2.09;72.48
37904;BME280;23738;50.422;18.758;2023-02-11T02:53:47;99882.17;;;-2.09;72.66
37904;BME280;23738;50.422;18.758;2023-02-11T02:56:27;99878.05;;;-2.10;72.60
37904;BME280;23738;50.422;18.758;2023-02-11T02:59:21;99874.40;;;-2.09;72.73
37904;BME280;23738;50.422;18.758;2023-02-11T03:01:59;99882.15;;;-2.09;72.74
37904;BME280;23738;50.422;18.758;2023-02-11T03:04:36;99882.13;;;-2.08;72.71
37904;BME280;23738;50.422;18.758;2023-02-11T03:07:15;99881.84;;;-2.07;72.62
37904;BME280;23738;50.422;18.758;2023-02-11T03:09:53;99878.52;;;-2.00;72.71
37904;BME280;23738;50.422;18.758;2023-02-11T03:12:27;99871.01;;;-1.96;72.78
37904;BME280;23738;50.422;18.758;2023-02-11T03:14:59;99868.67;;;-1.91;72.85
37904;BME280;23738;50.422;18.758;2023-02-11T03:17:30;99864.61;;;-1.86;72.84
37904;BME280;23738;50.422;18.758;2023-02-11T03:20:03;99858.42;;;-1.84;72.97
37904;BME280;23738;50.422;18.758;2023-02-11T03:22:37;99853.58;;;-1.84;72.96
37904;BME280;23738;50.422;18.758;2023-02-11T03:25:09;99850.92;;;-1.85;72.95
37904;BME280;23738;50.422;18.758;2023-02-11T03:27:42;99844.19;;;-1.89;72.97
37904;BME280;23738;50.422;18.758;2023-02-11T03:30:15;99840.08;;;-1.92;73.06
37904;BME280;23738;50.422;18.758;2023-02-11T03:32:52;99835.40;;;-1.95;72.92
37904;BME280;23738;50.422;18.758;2023-02-11T03:35:25;99833.84;;;-1.95;72.89
37904;BME280;23738;50.422;18.758;2023-02-11T03:38:00;99827.43;;;-1.91;73.01
37904;BME280;23738;50.422;18.758;2023-02-11T03:40:34;99816.04;;;-1.85;73.17
37904;BME280;23738;50.422;18.758;2023-02-11T03:43:07;99802.81;;;-1.81;73.15
37904;BME280;23738;50.422;18.758;2023-02-11T03:45:38;99804.36;;;-1.81;73.10
37904;BME280;23738;50.422;18.758;2023-02-11T03:48:13;99802.48;;;-1.81;73.24
37904;BME280;23738;50.422;18.758;2023-02-11T03:50:46;99792.05;;;-1.83;73.17
37904;BME280;23738;50.422;18.758;2023-02-11T03:53:17;99795.80;;;-1.85;73.24
37904;BME280;23738;50.422;18.758;2023-02-11T03:55:50;99794.50;;;-1.86;73.15
37904;BME280;23738;50.422;18.758;2023-02-11T03:58:21;99791.45;;;-1.87;73.29
37904;BME280;23738;50.422;18.758;2023-02-11T04:00:50;99787.78;;;-1.90;73.33
37904;BME280;23738;50.422;18.758;2023-02-11T04:03:20;99780.33;;;-1.89;73.27
37904;BME280;23738;50.422;18.758;2023-02-11T04:05:49;99776.32;;;-1.88;73.28
37904;BME280;23738;50.422;18.758;2023-02-11T04:08:19;99765.25;;;-1.85;73.29
37904;BME280;23738;50.422;18.758;2023-02-11T04:10:48;99755.09;;;-1.83;73.16
37904;BME280;23738;50.422;18.758;2023-02-11T04:13:17;99747.52;;;-1.75;73.50
37904;BME280;23738;50.422;18.758;2023-02-11T04:15:47;99748.59;;;-1.72;73.36
37904;BME280;23738;50.422;18.758;2023-02-11T04:18:16;99742.63;;;-1.74;73.41
37904;BME280;23738;50.422;18.758;2023-02-11T04:20:45;99732.61;;;-1.76;73.42
37904;BME280;23738;50.422;18.758;2023-02-11T04:23:15;99736.64;;;-1.77;73.60
37904;BME280;23738;50.422;18.758;2023-02-11T04:25:44;99734.61;;;-1.78;73.50
37904;BME280;23738;50.422;18.758;2023-02-11T04:28:13;99732.75;;;-1.79;73.56
37904;BME280;23738;50.422;18.758;2023-02-11T04:30:43;99734.05;;;-1.80;73.40
37904;BME280;23738;50.422;18.758;2023-02-11T04:33:12;99744.81;;;-1.79;73.60
37904;BME280;23738;50.422;18.758;2023-02-11T04:35:41;99745.48;;;-1.78;73.45
37904;BME280;23738;50.422;18.758;2023-02-11T04:38:10;99741.98;;;-1.75;73.51
37904;BME280;23738;50.422;18.758;2023-02-11T04:40:40;99742.88;;;-1.72;73.52
37904;BME280;23738;50.422;18.758;2023-02-11T04:43:09;99740.89;;;-1.71;73.62
37904;BME280;23738;50.422;18.758;2023-02-11T04:45:38;99743.70;;;-1.66;73.71
37904;BME280;23738;50.422;18.758;2023-02-11T04:48:07;99754.02;;;-1.65;73.64
37904;BME280;23738;50.422;18.758;2023-02-11T04:50:37;99756.40;;;-1.68;73.41
37904;BME280;23738;50.422;18.758;2023-02-11T04:53:06;99748.42;;;-1.70;73.60
37904;BME280;23738;50.422;18.758;2023-02-11T04:55:35;99738.92;;;-1.70;73.69
37904;BME280;23738;50.422;18.758;2023-02-11T04:58:04;99737.44;;;-1.71;73.70
37904;BME280;23738;50.422;18.758;2023-02-11T05:00:34;99737.20;;;-1.70;73.60
37904;BME280;23738;50.422;18.758;2023-02-11T05:03:03;99732.42;;;-1.68;73.49
37904;BME280;23738;50.422;18.758;2023-02-11T05:05:32;99725.47;;;-1.65;73.57
37904;BME280;23738;50.422;18.758;2023-02-11T05:08:02;99730.46;;;-1.61;73.56
37904;BME280;23738;50.422;18.758;2023-02-11T05:10:31;99727.48;;;-1.58;73.74
37904;BME280;23738;50.422;18.758;2023-02-11T05:13:01;99735.19;;;-1.57;73.56
37904;BME280;23738;50.422;18.758;2023-02-11T05:15:30;99739.66;;;-1.57;73.76
37904;BME280;23738;50.422;18.758;2023-02-11T05:18:00;99744.78;;;-1.59;73.83
37904;BME280;23738;50.422;18.758;2023-02-11T05:20:29;99740.84;;;-1.59;73.88
37904;BME280;23738;50.422;18.758;2023-02-11T05:22:58;99740.48;;;-1.61;73.88
37904;BME280;23738;50.422;18.758;2023-02-11T05:25:27;99750.66;;;-1.61;73.81
37904;BME280;23738;50.422;18.758;2023-02-11T05:27:57;99755.19;;;-1.59;73.80
37904;BME280;23738;50.422;18.758;2023-02-11T05:30:26;99750.86;;;-1.56;73.88
37904;BME280;23738;50.422;18.758;2023-02-11T05:32:56;99748.84;;;-1.51;73.92
37904;BME280;23738;50.422;18.758;2023-02-11T05:35:25;99738.46;;;-1.48;73.94
37904;BME280;23738;50.422;18.758;2023-02-11T05:37:54;99733.42;;;-1.45;73.96
37904;BME280;23738;50.422;18.758;2023-02-11T05:40:23;99734.59;;;-1.44;73.98
37904;BME280;23738;50.422;18.758;2023-02-11T05:42:53;99723.23;;;-1.45;73.94
37904;BME280;23738;50.422;18.758;2023-02-11T05:45:22;99725.95;;;-1.47;73.95
37904;BME280;23738;50.422;18.758;2023-02-11T05:47:51;99708.80;;;-1.49;73.99
37904;BME280;23738;50.422;18.758;2023-02-11T05:50:21;99693.60;;;-1.52;73.82
37904;BME280;23738;50.422;18.758;2023-02-11T05:52:50;99698.36;;;-1.51;73.86
37904;BME280;23738;50.422;18.758;2023-02-11T05:55:19;99700.34;;;-1.49;73.86
37904;BME280;23738;50.422;18.758;2023-02-11T05:57:49;99699.11;;;-1.46;73.92
37904;BME280;23738;50.422;18.758;2023-02-11T06:00:19;99699.61;;;-1.46;73.94
37904;BME280;23738;50.422;18.758;2023-02-11T06:02:48;99690.29;;;-1.46;73.93
37904;BME280;23738;50.422;18.758;2023-02-11T06:05:18;99682.55;;;-1.46;73.88
37904;BME280;23738;50.422;18.758;2023-02-11T06:07:47;99682.42;;;-1.47;74.05
37904;BME280;23738;50.422;18.758;2023-02-11T06:10:17;99685.70;;;-1.47;74.14
37904;BME280;23738;50.422;18.758;2023-02-11T06:12:46;99686.14;;;-1.49;74.05
37904;BME280;23738;50.422;18.758;2023-02-11T06:15:15;99691.52;;;-1.49;73.94
37904;BME280;23738;50.422;18.758;2023-02-11T06:17:44;99682.13;;;-1.48;74.01
37904;BME280;23738;50.422;18.758;2023-02-11T06:20:14;99675.51;;;-1.44;73.92
37904;BME280;23738;50.422;18.758;2023-02-11T06:22:43;99673.41;;;-1.41;74.19
37904;BME280;23738;50.422;18.758;2023-02-11T06:25:12;99670.40;;;-1.40;74.12
37904;BME280;23738;50.422;18.758;2023-02-11T06:27:42;99673.33;;;-1.40;74.14
37904;BME280;23738;50.422;18.758;2023-02-11T06:30:13;99681.17;;;-1.41;74.13
37904;BME280;23738;50.422;18.758;2023-02-11T06:32:42;99683.35;;;-1.42;73.98
37904;BME280;23738;50.422;18.758;2023-02-11T06:35:11;99682.20;;;-1.41;74.14
37904;BME280;23738;50.422;18.758;2023-02-11T06:37:41;99679.47;;;-1.41;74.14
37904;BME280;23738;50.422;18.758;2023-02-11T06:40:11;99682.93;;;-1.41;74.07
37904;BME280;23738;50.422;18.758;2023-02-11T06:42:40;99684.34;;;-1.39;74.12
37904;BME280;23738;50.422;18.758;2023-02-11T06:45:10;99680.41;;;-1.34;74.18
37904;BME280;23738;50.422;18.758;2023-02-11T06:47:40;99677.36;;;-1.27;74.27
37904;BME280;23738;50.422;18.758;2023-02-11T06:50:12;99677.63;;;-1.24;74.23
37904;BME280;23738;50.422;18.758;2023-02-11T06:52:42;99672.27;;;-1.21;74.16
37904;BME280;23738;50.422;18.758;2023-02-11T06:55:11;99675.10;;;-1.19;74.22
37904;BME280;23738;50.422;18.758;2023-02-11T06:57:40;99671.05;;;-1.18;74.14
37904;BME280;23738;50.422;18.758;2023-02-11T07:00:12;99677.59;;;-1.20;74.27
37904;BME280;23738;50.422;18.758;2023-02-11T07:02:41;99676.95;;;-1.24;74.05
37904;BME280;23738;50.422;18.758;2023-02-11T07:05:11;99679.62;;;-1.25;74.16
37904;BME280;23738;50.422;18.758;2023-02-11T07:07:40;99673.12;;;-1.26;74.20
37904;BME280;23738;50.422;18.758;2023-02-11T07:10:10;99667.77;;;-1.21;74.16
37904;BME280;23738;50.422;18.758;2023-02-11T07:12:39;99653.77;;;-1.18;74.23
37904;BME280;23738;50.422;18.758;2023-02-11T07:15:09;99662.80;;;-1.13;74.27
37904;BME280;23738;50.422;18.758;2023-02-11T07:17:38;99661.30;;;-1.09;74.25
37904;BME280;23738;50.422;18.758;2023-02-11T07:20:09;99662.42;;;-1.08;74.30
37904;BME280;23738;50.422;18.758;2023-02-11T07:22:41;99661.20;;;-1.07;74.31
37904;BME280;23738;50.422;18.758;2023-02-11T07:25:10;99659.90;;;-1.03;74.30
37904;BME280;23738;50.422;18.758;2023-02-11T07:27:39;99651.85;;;-0.99;74.27
37904;BME280;23738;50.422;18.758;2023-02-11T07:30:11;99651.19;;;-0.97;74.49
37904;BME280;23738;50.422;18.758;2023-02-11T07:32:41;99639.73;;;-0.96;74.51
37904;BME280;23738;50.422;18.758;2023-02-11T07:35:10;99636.91;;;-0.93;74.42
37904;BME280;23738;50.422;18.758;2023-02-11T07:37:39;99637.73;;;-0.84;74.36
37904;BME280;23738;50.422;18.758;2023-02-11T07:40:10;99635.66;;;-0.77;74.52
37904;BME280;23738;50.422;18.758;2023-02-11T07:42:39;99631.41;;;-0.70;74.54
37904;BME280;23738;50.422;18.758;2023-02-11T07:45:10;99627.83;;;-0.63;74.50
37904;BME280;23738;50.422;18.758;2023-02-11T07:47:40;99617.02;;;-0.54;74.60
37904;BME280;23738;50.422;18.758;2023-02-11T07:50:10;99616.34;;;-0.47;74.79
37904;BME280;23738;50.422;18.758;2023-02-11T07:52:40;99619.37;;;-0.43;74.65
37904;BME280;23738;50.422;18.758;2023-02-11T07:55:09;99620.53;;;-0.39;74.65
37904;BME280;23738;50.422;18.758;2023-02-11T07:57:38;99628.30;;;-0.31;74.71
37904;BME280;23738;50.422;18.758;2023-02-11T08:00:10;99628.89;;;-0.20;74.70
37904;BME280;23738;50.422;18.758;2023-02-11T08:02:39;99623.09;;;-0.09;74.76
37904;BME280;23738;50.422;18.758;2023-02-11T08:05:09;99619.48;;;0.01;74.69
37904;BME280;23738;50.422;18.758;2023-02-11T08:07:38;99628.02;;;0.10;74.76
37904;BME280;23738;50.422;18.758;2023-02-11T08:10:08;99627.30;;;0.18;74.75
37904;BME280;23738;50.422;18.758;2023-02-11T08:12:37;99633.39;;;0.22;74.76
37904;BME280;23738;50.422;18.758;2023-02-11T08:15:08;99638.48;;;0.26;74.62
37904;BME280;23738;50.422;18.758;2023-02-11T08:17:37;99638.20;;;0.28;74.66
37904;BME280;23738;50.422;18.758;2023-02-11T08:20:08;99645.60;;;0.28;74.62
37904;BME280;23738;50.422;18.758;2023-02-11T08:22:37;99644.78;;;0.28;74.50
37904;BME280;23738;50.422;18.758;2023-02-11T08:25:08;99639.50;;;0.31;74.65
37904;BME280;23738;50.422;18.758;2023-02-11T08:27:37;99638.20;;;0.40;74.64
37904;BME280;23738;50.422;18.758;2023-02-11T08:30:09;99633.11;;;0.48;74.64
37904;BME280;23738;50.422;18.758;2023-02-11T08:32:38;99633.84;;;0.55;74.54
37904;BME280;23738;50.422;18.758;2023-02-11T08:35:08;99631.45;;;0.62;74.70
37904;BME280;23738;50.422;18.758;2023-02-11T08:37:39;99630.88;;;0.67;74.79
37904;BME280;23738;50.422;18.758;2023-02-11T08:40:09;99635.83;;;0.73;74.59
37904;BME280;23738;50.422;18.758;2023-02-11T08:42:39;99639.62;;;0.75;74.52
37904;BME280;23738;50.422;18.758;2023-02-11T08:45:09;99641.68;;;0.79;74.57
37904;BME280;23738;50.422;18.758;2023-02-11T08:47:39;99628.95;;;0.87;74.58
37904;BME280;23738;50.422;18.758;2023-02-11T08:50:09;99610.84;;;0.97;74.69
37904;BME280;23738;50.422;18.758;2023-02-11T08:52:38;99619.70;;;1.08;74.66
37904;BME280;23738;50.422;18.758;2023-02-11T08:55:08;99629.21;;;1.20;74.56
37904;BME280;23738;50.422;18.758;2023-02-11T08:57:38;99634.75;;;1.25;74.19
37904;BME280;23738;50.422;18.758;2023-02-11T09:00:10;99638.80;;;1.27;74.38
37904;BME280;23738;50.422;18.758;2023-02-11T09:02:39;99641.77;;;1.26;74.09
37904;BME280;23738;50.422;18.758;2023-02-11T09:05:09;99643.06;;;1.26;74.36
37904;BME280;23738;50.422;18.758;2023-02-11T09:07:38;99650.64;;;1.31;74.42
37904;BME280;23738;50.422;18.758;2023-02-11T09:10:08;99656.95;;;1.37;74.31
37904;BME280;23738;50.422;18.758;2023-02-11T09:12:38;99647.02;;;1.40;74.39
37904;BME280;23738;50.422;18.758;2023-02-11T09:15:08;99654.30;;;1.44;74.24
37904;BME280;23738;50.422;18.758;2023-02-11T09:17:37;99655.42;;;1.50;74.25
37904;BME280;23738;50.422;18.758;2023-02-11T09:20:08;99654.93;;;1.54;74.11
37904;BME280;23738;50.422;18.758;2023-02-11T09:22:39;99658.55;;;1.58;74.17
37904;BME280;23738;50.422;18.758;2023-02-11T09:25:09;99661.65;;;1.60;73.86
37904;BME280;23738;50.422;18.758;2023-02-11T09:27:38;99671.47;;;1.61;73.99
37904;BME280;23738;50.422;18.758;2023-02-11T09:30:10;99669.19;;;1.64;74.10
37904;BME280;23738;50.422;18.758;2023-02-11T09:32:39;99664.36;;;1.68;73.93
37904;BME280;23738;50.422;18.758;2023-02-11T09:35:09;99656.64;;;1.73;73.87
37904;BME280;23738;50.422;18.758;2023-02-11T09:37:38;99645.81;;;1.79;73.95
37904;BME280;23738;50.422;18.758;2023-02-11T09:40:09;99642.50;;;1.85;73.99
37904;BME280;23738;50.422;18.758;2023-02-11T09:42:45;99642.08;;;1.93;74.21
37904;BME280;23738;50.422;18.758;2023-02-11T09:45:20;99643.39;;;1.97;74.03
37904;BME280;23738;50.422;18.758;2023-02-11T09:47:54;99642.93;;;1.98;73.85
37904;BME280;23738;50.422;18.758;2023-02-11T09:50:29;99633.88;;;2.00;73.59
37904;BME280;23738;50.422;18.758;2023-02-11T09:53:02;99635.34;;;2.06;74.14
37904;BME280;23738;50.422;18.758;2023-02-11T09:55:34;99634.30;;;2.15;73.80
37904;BME280;23738;50.422;18.758;2023-02-11T09:58:12;99628.06;;;2.21;73.49
37904;BME280;23738;50.422;18.758;2023-02-11T10:00:45;99622.52;;;2.25;73.35
37904;BME280;23738;50.422;18.758;2023-02-11T10:03:41;99623.91;;;2.28;73.38
37904;BME280;23738;50.422;18.758;2023-02-11T10:06:42;99605.70;;;2.27;73.32
37904;BME280;23738;50.422;18.758;2023-02-11T10:09:23;99611.13;;;2.40;73.83
37904;BME280;23738;50.422;18.758;2023-02-11T10:12:08;99606.68;;;2.43;73.55
37904;BME280;23738;50.422;18.758;2023-02-11T10:15:00;99591.24;;;2.43;73.54
37904;BME280;23738;50.422;18.758;2023-02-11T10:17:40;99576.67;;;2.47;73.27
37904;BME280;23738;50.422;18.758;2023-02-11T10:20:24;99568.80;;;2.56;73.34
37904;BME280;23738;50.422;18.758;2023-02-11T10:22:59;99556.13;;;2.62;73.40
37904;BME280;23738;50.422;18.758;2023-02-11T10:25:36;99544.98;;;2.62;73.13
37904;BME280;23738;50.422;18.758;2023-02-11T10:28:14;99534.52;;;2.60;73.17
37904;BME280;23738;50.422;18.758;2023-02-11T10:30:48;99519.83;;;2.61;73.17
37904;BME280;23738;50.422;18.758;2023-02-11T10:33:26;99508.14;;;2.64;73.49
37904;BME280;23738;50.422;18.758;2023-02-11T10:35:57;99491.85;;;2.67;73.20
37904;BME280;23738;50.422;18.758;2023-02-11T10:38:26;99474.84;;;2.69;73.18
37904;BME280;23738;50.422;18.758;2023-02-11T10:40:56;99464.83;;;2.70;73.13
37904;BME280;23738;50.422;18.758;2023-02-11T10:43:27;99454.11;;;2.74;73.25
37904;BME280;23738;50.422;18.758;2023-02-11T10:46:00;99466.04;;;2.93;73.19
37904;BME280;23738;50.422;18.758;2023-02-11T10:48:42;99474.98;;;3.05;73.34
37904;BME280;23738;50.422;18.758;2023-02-11T10:51:21;99482.63;;;3.15;73.01
37904;BME280;23738;50.422;18.758;2023-02-11T10:54:11;99488.17;;;3.20;73.12
37904;BME280;23738;50.422;18.758;2023-02-11T10:56:48;99489.96;;;3.21;72.89
37904;BME280;23738;50.422;18.758;2023-02-11T10:59:23;99491.88;;;3.15;72.40
37904;BME280;23738;50.422;18.758;2023-02-11T11:01:57;99486.48;;;3.09;72.49
37904;BME280;23738;50.422;18.758;2023-02-11T11:04:38;99486.31;;;3.04;72.53
37904;BME280;23738;50.422;18.758;2023-02-11T11:07:17;99486.52;;;3.06;72.76
37904;BME280;23738;50.422;18.758;2023-02-11T11:09:52;99484.75;;;3.11;72.61
37904;BME280;23738;50.422;18.758;2023-02-11T11:12:32;99485.49;;;3.17;73.01
37904;BME280;23738;50.422;18.758;2023-02-11T11:15:14;99485.19;;;3.22;72.72
37904;BME280;23738;50.422;18.758;2023-02-11T11:17:46;99488.40;;;3.25;72.88
37904;BME280;23738;50.422;18.758;2023-02-11T11:20:19;99483.20;;;3.25;72.91
37904;BME280;23738;50.422;18.758;2023-02-11T11:22:51;99486.84;;;3.25;72.98
37904;BME280;23738;50.422;18.758;2023-02-11T11:25:24;99483.58;;;3.24;72.86
37904;BME280;23738;50.422;18.758;2023-02-11T11:27:56;99465.78;;;3.23;72.93
37904;BME280;23738;50.422;18.758;2023-02-11T11:30:32;99449.61;;;3.21;72.75
37904;BME280;23738;50.422;18.758;2023-02-11T11:33:02;99445.80;;;3.19;72.77
37904;BME280;23738;50.422;18.758;2023-02-11T11:35:32;99448.55;;;3.17;72.69
37904;BME280;23738;50.422;18.758;2023-02-11T11:38:03;99449.11;;;3.16;72.81
37904;BME280;23738;50.422;18.758;2023-02-11T11:40:34;99455.02;;;3.19;73.08
37904;BME280;23738;50.422;18.758;2023-02-11T11:43:14;99458.73;;;3.16;72.66
37904;BME280;23738;50.422;18.758;2023-02-11T11:45:56;99472.12;;;3.14;72.64
37904;BME280;23738;50.422;18.758;2023-02-11T11:48:29;99468.31;;;3.12;72.66
37904;BME280;23738;50.422;18.758;2023-02-11T11:51:03;99478.46;;;3.17;72.89
37904;BME280;23738;50.422;18.758;2023-02-11T11:53:36;99486.96;;;3.24;72.79
37904;BME280;23738;50.422;18.758;2023-02-11T11:56:12;99478.64;;;3.27;72.92
37904;BME280;23738;50.422;18.758;2023-02-11T11:58:42;99478.51;;;3.29;72.99
37904;BME280;23738;50.422;18.758;2023-02-11T12:01:18;99485.93;;;3.27;72.81
37904;BME280;23738;50.422;18.758;2023-02-11T12:04:25;99485.32;;;3.25;72.70
37904;BME280;23738;50.422;18.758;2023-02-11T12:07:09;99490.29;;;3.19;72.95
37904;BME280;23738;50.422;18.758;2023-02-11T12:09:55;99492.34;;;3.16;72.70
37904;BME280;23738;50.422;18.758;2023-02-11T12:12:37;99494.23;;;3.10;72.77
37904;BME280;23738;50.422;18.758;2023-02-11T12:15:24;99493.71;;;3.05;72.82
37904;BME280;23738;50.422;18.758;2023-02-11T12:18:07;99497.83;;;3.04;72.64
37904;BME280;23738;50.422;18.758;2023-02-11T12:20:48;99486.45;;;3.07;72.77
37904;BME280;23738;50.422;18.758;2023-02-11T12:23:35;99491.79;;;3.07;72.78
37904;BME280;23738;50.422;18.758;2023-02-11T12:26:13;99480.66;;;2.97;72.74
37904;BME280;23738;50.422;18.758;2023-02-11T12:28:56;99479.83;;;2.97;73.14
37904;BME280;23738;50.422;18.758;2023-02-11T12:31:36;99460.58;;;2.94;72.82
37904;BME280;23738;50.422;18.758;2023-02-11T13:05:13;99416.36;;;3.16;73.59
37904;BME280;23738;50.422;18.758;2023-02-11T13:07:46;99415.60;;;3.12;73.65
37904;BME280;23738;50.422;18.758;2023-02-11T13:10:24;99409.76;;;3.11;73.79
37904;BME280;23738;50.422;18.758;2023-02-11T13:12:54;99398.73;;;3.11;73.92
37904;BME280;23738;50.422;18.758;2023-02-11T13:15:42;99401.63;;;3.07;73.91
37904;BME280;23738;50.422;18.758;2023-02-11T13:18:20;99406.55;;;3.05;74.05
37904;BME280;23738;50.422;18.758;2023-02-11T13:20:55;99408.69;;;3.02;74.24
37904;BME280;23738;50.422;18.758;2023-02-11T13:23:33;99393.61;;;2.95;74.01
37904;BME280;23738;50.422;18.758;2023-02-11T13:26:09;99357.35;;;2.86;74.19
37904;BME280;23738;50.422;18.758;2023-02-11T13:28:47;99341.79;;;2.89;74.12
37904;BME280;23738;50.422;18.758;2023-02-11T13:31:16;99321.70;;;2.88;74.44
37904;BME280;23738;50.422;18.758;2023-02-11T13:33:46;99325.87;;;2.88;74.41
37904;BME280;23738;50.422;18.758;2023-02-11T13:36:24;99341.46;;;2.89;74.45
37904;BME280;23738;50.422;18.758;2023-02-11T13:39:01;99352.31;;;2.90;74.58
37904;BME280;23738;50.422;18.758;2023-02-11T13:41:32;99350.66;;;2.89;74.68
37904;BME280;23738;50.422;18.758;2023-02-11T13:44:03;99352.75;;;2.85;74.67
37904;BME280;23738;50.422;18.758;2023-02-11T13:46:47;99356.93;;;2.83;74.83
37904;BME280;23738;50.422;18.758;2023-02-11T13:49:20;99358.61;;;2.82;75.03
37904;BME280;23738;50.422;18.758;2023-02-11T13:51:49;99360.12;;;2.79;75.34
37904;BME280;23738;50.422;18.758;2023-02-11T13:54:24;99355.87;;;2.75;74.94